CYDQ

Dawson Creek Airport

Dawson Creek, British Columbia, Canada
METAR CYDQ 192000Z AUTO 27005KT 250V330 9SM CLR 26/14 A3004 RMK SLP173 DENSITY ALT 3800FT
Observed Flight Rules
Jun-19 @ 20:00 UTC (18 minutes ago) Visual Flight Rules
Wind Visibility Clouds
270° at 5 knots 9 miles
  • Clear skies
Temperatures Readings
Current 26°C / 79°F
Dewpoint 14°C / 57°F
Humidity 48%
Altimeter 30.04" Hg
Pressure 1017.3 hPa
Elevation 655
METAR CYDQ 192000Z AUTO 27005KT 250V330 9SM CLR 26/14 A3004 RMK SLP173 DENSITY ALT 3800FT
Observed Flight Rules
Jun-19 @ 20:00 UTC
(18 minutes ago)
VFR
Wind Visibility
270° at 5 knots 9 miles
Clouds
  • Clear skies
Temperature Dewpoint
26°C / 79°F 14°C / 57°F
Humidity Altimeter Pressure
48% 30.04" Hg 1017.3 hPa